createdAt,value
2019-03-18T00:02:09.457Z,5.23
2019-03-18T00:04:40.361Z,1.87
2019-03-18T00:07:11.337Z,2.30
2019-03-18T00:09:40.585Z,3.23
2019-03-18T00:12:09.218Z,5.97
2019-03-18T00:14:37.603Z,4.10
2019-03-18T00:17:07.680Z,2.77
2019-03-18T00:19:37.929Z,3.40
2019-03-18T00:22:13.074Z,5.23
2019-03-18T00:24:47.139Z,3.60
2019-03-18T00:27:15.513Z,3.70
2019-03-18T00:29:43.914Z,3.80
2019-03-18T00:32:16.525Z,4.07
2019-03-18T00:34:45.180Z,3.70
2019-03-18T00:37:16.373Z,5.90
2019-03-18T00:39:44.777Z,4.47
2019-03-18T00:42:13.141Z,7.53
2019-03-18T00:44:41.524Z,8.83
2019-03-18T00:47:13.858Z,5.30
2019-03-18T00:49:42.233Z,5.90
2019-03-18T00:52:12.148Z,9.83
2019-03-18T00:54:45.965Z,9.93
2019-03-18T00:57:17.206Z,5.80
2019-03-18T00:59:49.942Z,5.93
2019-03-18T01:02:23.837Z,3.80
2019-03-18T01:04:53.858Z,4.07
2019-03-18T01:07:25.265Z,7.57
2019-03-18T01:10:00.005Z,7.20
2019-03-18T01:12:30.078Z,5.40
2019-03-18T01:15:00.108Z,6.57
2019-03-18T01:17:28.570Z,7.50
2019-03-18T01:19:59.943Z,5.13
2019-03-18T01:22:33.890Z,8.47
2019-03-18T01:25:02.274Z,10.50
2019-03-18T01:27:30.666Z,7.80
2019-03-18T01:30:01.799Z,8.93
2019-03-18T01:32:30.195Z,8.33
2019-03-18T01:35:03.185Z,5.80
2019-03-18T01:37:34.466Z,8.27
2019-03-18T01:40:04.028Z,8.47
2019-03-18T01:42:33.950Z,16.63
2019-03-18T01:45:05.132Z,11.83
2019-03-18T01:47:33.511Z,6.10
2019-03-18T01:50:01.910Z,9.47
2019-03-18T01:52:31.929Z,8.87
2019-03-18T01:55:05.013Z,7.03
2019-03-18T01:57:35.030Z,9.40
2019-03-18T02:00:16.059Z,4.37
2019-03-18T02:02:44.669Z,7.83
2019-03-18T02:05:17.631Z,4.73
2019-03-18T02:07:46.005Z,5.17
2019-03-18T02:10:23.297Z,6.83
2019-03-18T02:12:54.831Z,7.13
2019-03-18T02:15:23.217Z,6.27
2019-03-18T02:17:53.205Z,6.07
2019-03-18T02:20:21.764Z,10.03
2019-03-18T02:22:55.774Z,8.63
2019-03-18T02:25:24.168Z,7.03
2019-03-18T02:27:52.550Z,11.23
2019-03-18T02:30:21.195Z,7.73
2019-03-18T02:32:51.215Z,11.97
2019-03-18T02:35:21.282Z,13.10
2019-03-18T02:37:52.868Z,11.60
2019-03-18T02:40:21.238Z,8.63
2019-03-18T02:42:52.539Z,10.70
2019-03-18T02:45:24.806Z,12.20
2019-03-18T02:47:56.685Z,9.97
2019-03-18T02:50:26.716Z,7.73
2019-03-18T02:52:55.105Z,8.27
2019-03-18T02:55:24.509Z,11.07
2019-03-18T02:57:52.878Z,10.17
2019-03-18T03:00:21.262Z,13.53
2019-03-18T03:02:49.637Z,9.47
2019-03-18T03:05:22.340Z,9.70
2019-03-18T03:07:50.762Z,13.27
2019-03-18T03:10:38.537Z,11.30
2019-03-18T03:13:08.674Z,13.77
2019-03-18T03:15:37.389Z,12.07
2019-03-18T03:18:06.036Z,14.80
2019-03-18T03:20:34.439Z,14.23
2019-03-18T03:23:02.842Z,12.27
2019-03-18T03:25:32.865Z,13.93
2019-03-18T03:28:01.264Z,11.83
2019-03-18T03:30:30.782Z,11.30
2019-03-18T03:32:59.416Z,11.07
2019-03-18T03:35:29.186Z,14.83
2019-03-18T03:37:57.567Z,9.80
2019-03-18T03:40:25.954Z,9.47
2019-03-18T03:42:54.600Z,11.43
2019-03-18T03:45:22.994Z,10.60
2019-03-18T03:47:51.377Z,18.73
2019-03-18T03:50:19.794Z,13.93
2019-03-18T03:52:48.750Z,14.50
2019-03-18T03:55:18.252Z,10.80
2019-03-18T03:57:46.725Z,10.50
2019-03-18T04:00:17.532Z,13.17
2019-03-18T04:02:45.956Z,10.00
2019-03-18T04:05:14.424Z,10.90
2019-03-18T04:07:43.480Z,11.77
2019-03-18T04:10:15.108Z,9.93
2019-03-18T04:12:43.540Z,11.13
2019-03-18T04:15:16.110Z,7.83
2019-03-18T04:17:44.497Z,11.43
2019-03-18T04:20:18.699Z,11.93
2019-03-18T04:22:47.085Z,6.60
2019-03-18T04:25:19.470Z,7.13
2019-03-18T04:27:47.835Z,9.33
2019-03-18T04:30:26.254Z,7.37
2019-03-18T04:32:55.260Z,8.93
2019-03-18T04:35:25.514Z,7.77
2019-03-18T04:37:56.419Z,10.23
2019-03-18T04:40:26.444Z,7.10
2019-03-18T04:42:57.810Z,8.57
2019-03-18T04:45:28.609Z,7.87
2019-03-18T04:47:56.981Z,8.60
2019-03-18T04:50:28.485Z,7.33
2019-03-18T04:52:56.874Z,8.10
2019-03-18T04:55:25.245Z,9.67
2019-03-18T04:57:56.817Z,7.27
2019-03-18T05:00:25.202Z,6.47
2019-03-18T05:02:53.581Z,8.90
2019-03-18T05:05:21.977Z,8.90
2019-03-18T05:07:50.611Z,9.80
2019-03-18T05:10:24.365Z,7.03
2019-03-18T05:12:58.240Z,7.57
2019-03-18T05:15:26.639Z,7.10
2019-03-18T05:17:57.692Z,6.53
2019-03-18T05:20:26.082Z,9.53
2019-03-18T05:23:01.885Z,8.67
2019-03-18T05:25:27.525Z,9.90
2019-03-18T05:27:57.562Z,11.67
2019-03-18T05:30:37.673Z,9.50
2019-03-18T05:33:06.065Z,7.90
2019-03-18T05:35:34.476Z,10.00
2019-03-18T05:38:05.565Z,8.37
2019-03-18T05:40:36.901Z,9.07
2019-03-18T05:43:06.947Z,9.37
2019-03-18T05:45:38.313Z,13.80
2019-03-18T05:48:09.629Z,11.87
2019-03-18T05:50:38.269Z,7.97
2019-03-18T05:53:06.706Z,13.83
2019-03-18T05:55:35.125Z,11.77
2019-03-18T05:58:03.613Z,13.47
2019-03-18T06:00:32.065Z,9.60
2019-03-18T06:03:00.463Z,13.10
2019-03-18T06:05:28.922Z,10.70
2019-03-18T06:08:00.282Z,10.83
2019-03-18T06:10:29.124Z,10.70
2019-03-18T06:12:57.529Z,7.43
2019-03-18T06:15:28.832Z,8.20
2019-03-18T06:17:57.237Z,6.83
2019-03-18T06:20:28.313Z,8.07
2019-03-18T06:22:56.701Z,8.40
2019-03-18T06:25:25.104Z,8.30
2019-03-18T06:27:53.474Z,7.40
2019-03-18T06:30:21.857Z,4.63
2019-03-18T06:32:51.889Z,7.20
2019-03-18T06:35:24.670Z,4.23
2019-03-18T06:37:57.321Z,3.90
2019-03-18T06:40:28.654Z,3.90
2019-03-18T06:42:57.036Z,3.30
2019-03-18T06:45:25.418Z,3.87
2019-03-18T06:48:04.179Z,3.60
2019-03-18T06:50:24.194Z,3.43
2019-03-18T06:52:52.588Z,3.10
2019-03-18T06:55:20.962Z,3.37
2019-03-18T06:57:49.360Z,3.43
2019-03-18T07:00:23.881Z,4.03
2019-03-18T07:02:52.257Z,4.20
2019-03-18T07:05:20.986Z,3.43
2019-03-18T07:07:53.643Z,4.37
2019-03-18T07:10:22.041Z,2.93
2019-03-18T07:12:56.470Z,4.03
2019-03-18T07:15:26.811Z,5.33
2019-03-18T07:17:59.723Z,2.30
2019-03-18T07:20:28.390Z,4.10
2019-03-18T07:22:56.800Z,3.30
2019-03-18T07:25:26.110Z,4.70
2019-03-18T07:27:57.418Z,4.50
2019-03-18T07:30:26.047Z,2.43
2019-03-18T07:32:55.336Z,4.83
2019-03-18T07:35:23.729Z,2.90
2019-03-18T07:37:53.770Z,3.63
2019-03-18T07:40:22.161Z,2.03
2019-03-18T07:42:50.542Z,2.30
2019-03-18T07:45:20.450Z,3.40
2019-03-18T07:47:52.112Z,1.83
2019-03-18T07:50:20.498Z,2.27
2019-03-18T07:52:57.065Z,2.07
2019-03-18T07:55:25.457Z,7.80
2019-03-18T07:57:53.857Z,3.17
2019-03-18T08:00:35.801Z,1.47
2019-03-18T08:03:07.441Z,1.30
2019-03-18T08:05:35.824Z,4.17
2019-03-18T08:08:04.452Z,3.23
2019-03-18T08:10:32.904Z,2.17
2019-03-18T08:13:01.303Z,2.10
2019-03-18T08:15:29.686Z,1.53
2019-03-18T08:17:58.549Z,1.47
2019-03-18T08:20:27.174Z,5.30
2019-03-18T08:22:58.385Z,1.60
2019-03-18T08:25:35.690Z,4.77
2019-03-18T08:28:07.035Z,2.40
2019-03-18T08:30:37.060Z,2.30
2019-03-18T08:33:05.683Z,1.47
2019-03-18T08:35:34.069Z,3.00
2019-03-18T08:38:04.257Z,2.53
2019-03-18T08:40:34.290Z,1.23
2019-03-18T08:43:02.925Z,3.70
2019-03-18T08:45:31.310Z,1.93
2019-03-18T08:48:20.597Z,2.80
2019-03-18T08:50:54.939Z,2.50
2019-03-18T08:53:24.121Z,4.83
2019-03-18T08:55:54.145Z,1.57
2019-03-18T08:58:23.458Z,2.60
2019-03-18T09:00:51.845Z,1.70
2019-03-18T09:03:21.166Z,1.50
2019-03-18T09:05:49.774Z,4.70
2019-03-18T09:08:18.165Z,3.77
2019-03-18T09:10:50.067Z,2.60
2019-03-18T09:13:18.449Z,2.93
2019-03-18T09:15:46.837Z,4.17
2019-03-18T09:18:15.415Z,3.50
2019-03-18T09:20:46.713Z,2.33
2019-03-18T09:23:18.049Z,1.87
2019-03-18T09:25:46.429Z,4.73
2019-03-18T09:28:14.817Z,2.23
2019-03-18T09:30:43.213Z,2.70
2019-03-18T09:33:13.246Z,2.20
2019-03-18T09:35:44.638Z,2.03
2019-03-18T09:38:13.075Z,3.33
2019-03-18T09:40:41.479Z,3.37
2019-03-18T09:43:09.865Z,2.93
2019-03-18T09:45:41.067Z,4.60
2019-03-18T09:48:12.398Z,4.53
2019-03-18T09:50:41.038Z,4.17
2019-03-18T09:53:12.340Z,1.20
2019-03-18T09:55:40.973Z,1.07
2019-03-18T09:58:11.766Z,2.93
2019-03-18T10:00:43.049Z,5.33
2019-03-18T10:03:14.545Z,1.77
2019-03-18T10:05:44.056Z,3.57
2019-03-18T10:08:13.094Z,2.40
2019-03-18T10:10:41.817Z,1.67
2019-03-18T10:13:11.161Z,0.87
2019-03-18T10:15:39.765Z,1.33
2019-03-18T10:18:08.175Z,1.17
2019-03-18T10:20:39.515Z,1.67
2019-03-18T10:23:10.562Z,4.20
2019-03-18T10:25:38.945Z,1.77
2019-03-18T10:28:10.281Z,4.10
2019-03-18T10:30:38.915Z,1.63
2019-03-18T10:33:13.805Z,2.30
2019-03-18T10:35:42.446Z,1.50
2019-03-18T10:38:13.809Z,1.10
2019-03-18T10:40:48.912Z,1.13
2019-03-18T10:43:20.137Z,2.37
2019-03-18T10:45:48.534Z,1.62
2019-03-18T10:48:16.914Z,2.43
2019-03-18T10:50:45.498Z,1.13
2019-03-18T10:53:13.873Z,2.53
2019-03-18T10:55:43.909Z,1.10
2019-03-18T10:58:13.938Z,3.50
2019-03-18T11:00:47.030Z,1.80
2019-03-18T11:03:21.157Z,1.37
2019-03-18T11:05:49.783Z,1.37
2019-03-18T11:08:18.186Z,2.93
2019-03-18T11:10:46.806Z,1.13
2019-03-18T11:13:15.922Z,2.23
2019-03-18T11:15:47.042Z,6.83
2019-03-18T11:18:15.974Z,1.93
2019-03-18T11:20:47.638Z,1.30
2019-03-18T11:23:26.561Z,1.10
2019-03-18T11:25:58.953Z,1.37
2019-03-18T11:28:27.387Z,0.67
2019-03-18T11:30:58.580Z,1.03
2019-03-18T11:33:32.969Z,0.83
2019-03-18T11:36:04.537Z,1.80
2019-03-18T11:38:33.162Z,1.40
2019-03-18T11:41:04.758Z,1.90
2019-03-18T11:43:33.144Z,1.80
2019-03-18T11:46:01.534Z,3.53
2019-03-18T11:48:29.916Z,2.30
2019-03-18T11:50:58.309Z,1.00
2019-03-18T11:53:29.381Z,1.17
2019-03-18T11:55:59.657Z,0.70
2019-03-18T11:58:30.965Z,1.87
2019-03-18T12:01:02.017Z,0.90
2019-03-18T12:03:30.486Z,0.70
2019-03-18T12:06:02.019Z,0.90
2019-03-18T12:08:33.101Z,1.10
2019-03-18T12:11:03.226Z,0.80
2019-03-18T12:13:31.694Z,2.80
2019-03-18T12:16:00.081Z,1.00
2019-03-18T12:18:31.421Z,1.27
2019-03-18T12:20:59.808Z,1.53
2019-03-18T12:23:29.053Z,2.43
2019-03-18T12:25:59.092Z,1.73
2019-03-18T12:28:32.923Z,1.10
2019-03-18T12:31:01.313Z,1.80
2019-03-18T12:33:29.716Z,2.93
2019-03-18T12:35:58.099Z,3.33
2019-03-18T12:38:26.491Z,1.33
2019-03-18T12:40:54.875Z,1.23
2019-03-18T12:43:24.917Z,1.50
2019-03-18T12:45:53.379Z,1.80
2019-03-18T12:48:21.981Z,1.10
2019-03-18T12:50:56.144Z,1.30
2019-03-18T12:53:23.390Z,2.03
2019-03-18T12:55:52.980Z,1.32
2019-03-18T12:58:27.665Z,1.07
2019-03-18T13:00:56.725Z,2.13
2019-03-18T13:03:26.759Z,1.27
2019-03-18T13:05:59.674Z,0.90
2019-03-18T13:08:28.069Z,1.87
2019-03-18T13:10:59.809Z,1.03
2019-03-18T13:13:34.315Z,1.10
2019-03-18T13:16:05.539Z,0.67
2019-03-18T13:18:36.889Z,1.00
2019-03-18T13:21:08.009Z,1.30
2019-03-18T13:23:37.065Z,0.90
2019-03-18T13:26:05.434Z,3.20
2019-03-18T13:28:33.828Z,1.37
2019-03-18T13:31:09.174Z,1.40
2019-03-18T13:33:41.868Z,0.93
2019-03-18T13:36:11.017Z,1.00
2019-03-18T13:38:45.216Z,0.70
2019-03-18T13:41:16.618Z,1.30
2019-03-18T13:43:44.998Z,0.90
2019-03-18T13:46:18.471Z,0.73
2019-03-18T13:48:46.098Z,0.87
2019-03-18T13:51:20.820Z,1.03
2019-03-18T13:53:46.261Z,1.50
2019-03-18T13:56:17.235Z,0.70
2019-03-18T13:58:45.621Z,0.40
2019-03-18T14:01:15.309Z,0.40
2019-03-18T14:03:46.714Z,0.40
2019-03-18T14:06:17.882Z,0.97
2019-03-18T14:08:47.816Z,0.40
2019-03-18T14:11:16.274Z,1.07
2019-03-18T14:13:46.438Z,1.60
2019-03-18T14:16:14.846Z,2.13
2019-03-18T14:18:46.302Z,3.40
2019-03-18T14:21:14.707Z,0.70
2019-03-18T14:23:47.578Z,1.70
2019-03-18T14:26:17.611Z,0.87
2019-03-18T14:28:45.997Z,0.87
2019-03-18T14:31:17.309Z,1.07
2019-03-18T14:33:49.479Z,0.80
2019-03-18T14:36:44.485Z,0.60
2019-03-18T14:39:14.509Z,1.47
2019-03-18T14:41:42.913Z,0.73
2019-03-18T14:44:11.375Z,0.80
2019-03-18T14:46:39.747Z,1.47
2019-03-18T14:49:09.782Z,1.00
2019-03-18T14:51:45.753Z,4.43
2019-03-18T14:54:15.634Z,1.00
2019-03-18T14:56:45.654Z,1.57
2019-03-18T14:59:14.069Z,1.37
2019-03-18T15:01:45.387Z,1.07
2019-03-18T15:04:14.577Z,2.00
2019-03-18T15:06:42.961Z,2.07
2019-03-18T15:09:14.317Z,0.93
2019-03-18T15:11:46.409Z,4.47
2019-03-18T15:14:16.681Z,1.43
2019-03-18T15:16:46.610Z,1.03
2019-03-18T15:19:17.789Z,2.80
2019-03-18T15:21:57.628Z,2.10
2019-03-18T15:24:18.109Z,1.90
2019-03-18T15:26:46.570Z,1.20
2019-03-18T15:29:16.598Z,0.77
2019-03-18T15:31:47.942Z,2.50
2019-03-18T15:34:16.282Z,1.87
2019-03-18T15:36:45.313Z,0.73
2019-03-18T15:39:13.928Z,2.33
2019-03-18T15:41:45.379Z,1.37
2019-03-18T15:44:13.803Z,2.93
2019-03-18T15:46:43.905Z,3.43
2019-03-18T15:49:13.964Z,2.47
2019-03-18T15:51:45.061Z,1.80
2019-03-18T15:54:16.398Z,1.63
2019-03-18T15:56:45.023Z,1.90
2019-03-18T15:59:13.425Z,4.10
2019-03-18T16:01:44.738Z,1.07
2019-03-18T16:04:21.042Z,1.33
2019-03-18T16:06:49.462Z,2.03
2019-03-18T16:09:20.681Z,1.50
2019-03-18T16:11:50.018Z,1.23
2019-03-18T16:14:18.421Z,2.63
2019-03-18T16:16:46.997Z,1.17
2019-03-18T16:19:15.757Z,2.27
2019-03-18T16:21:44.133Z,1.87
2019-03-18T16:24:12.548Z,1.27
2019-03-18T16:26:41.004Z,2.80
2019-03-18T16:29:11.025Z,1.53
2019-03-18T16:31:40.954Z,2.00
2019-03-18T16:34:09.358Z,2.23
2019-03-18T16:36:37.738Z,0.67
2019-03-18T16:39:08.809Z,0.77
2019-03-18T16:41:37.199Z,0.77
2019-03-18T16:44:05.903Z,2.07
2019-03-18T16:46:39.969Z,2.23
2019-03-18T16:49:08.322Z,2.77
2019-03-18T16:51:37.045Z,0.97
2019-03-18T16:54:05.494Z,2.70
2019-03-18T16:56:37.718Z,2.73
2019-03-18T16:59:12.043Z,1.90
2019-03-18T17:01:43.168Z,4.77
2019-03-18T17:04:19.141Z,2.53
2019-03-18T17:06:47.542Z,3.93
2019-03-18T17:09:18.889Z,1.83
2019-03-18T17:11:47.405Z,3.77
2019-03-18T17:14:18.223Z,6.07
2019-03-18T17:16:46.846Z,5.40
2019-03-18T17:19:19.650Z,2.30
2019-03-18T17:21:48.370Z,2.53
2019-03-18T17:24:19.437Z,5.23
2019-03-18T17:26:47.871Z,4.40
2019-03-18T17:29:16.269Z,5.40
2019-03-18T17:31:46.673Z,3.50
2019-03-18T17:34:20.134Z,1.73
2019-03-18T17:36:48.515Z,6.87
2019-03-18T17:39:17.821Z,1.50
2019-03-18T17:41:54.969Z,2.70
2019-03-18T17:44:27.985Z,3.03
2019-03-18T17:46:56.622Z,2.67
2019-03-18T17:49:25.045Z,1.23
2019-03-18T17:51:53.443Z,4.43
2019-03-18T17:54:21.844Z,2.20
2019-03-18T17:56:50.238Z,4.43
2019-03-18T17:59:18.625Z,4.37
2019-03-18T18:01:47.098Z,2.57
2019-03-18T18:04:18.406Z,4.10
2019-03-18T18:06:47.192Z,3.07
2019-03-18T18:09:19.640Z,5.47
2019-03-18T18:11:48.389Z,3.97
2019-03-18T18:14:19.773Z,2.67
2019-03-18T18:16:54.078Z,4.40
2019-03-18T18:19:27.874Z,3.07
2019-03-18T18:21:56.261Z,5.23
2019-03-18T18:24:27.998Z,2.00
2019-03-18T18:26:56.621Z,2.60
2019-03-18T18:29:26.638Z,4.00
2019-03-18T18:32:01.310Z,3.73
2019-03-18T18:34:32.847Z,2.93
2019-03-18T18:37:02.890Z,2.50
2019-03-18T18:39:31.265Z,2.50
2019-03-18T18:42:02.712Z,2.57
2019-03-18T18:44:37.305Z,3.57
2019-03-18T18:47:12.101Z,3.33
2019-03-18T18:49:40.739Z,3.03
2019-03-18T18:52:09.133Z,2.23
2019-03-18T18:54:40.418Z,1.93
2019-03-18T18:57:09.757Z,2.63
2019-03-18T18:59:38.145Z,5.37
2019-03-18T19:02:11.101Z,3.90
2019-03-18T19:04:52.882Z,7.33
2019-03-18T19:07:12.826Z,5.70
2019-03-18T19:09:41.201Z,4.47
2019-03-18T19:12:15.107Z,2.67
2019-03-18T19:14:43.484Z,2.50
2019-03-18T19:17:14.374Z,3.40
2019-03-18T19:19:44.608Z,3.37
2019-03-18T19:22:13.110Z,5.90
2019-03-18T19:24:41.537Z,4.80
2019-03-18T19:27:17.501Z,4.90
2019-03-18T19:29:51.718Z,2.60
2019-03-18T19:32:21.984Z,3.40
2019-03-18T19:34:57.797Z,2.90
2019-03-18T19:37:26.639Z,2.67
2019-03-18T19:39:57.715Z,3.03
2019-03-18T19:42:26.105Z,5.17
2019-03-18T19:44:54.508Z,4.80
2019-03-18T19:47:25.372Z,1.90
2019-03-18T19:49:56.443Z,5.33
2019-03-18T19:52:26.473Z,9.17
2019-03-18T19:54:57.957Z,5.50
2019-03-18T19:57:26.353Z,3.33
2019-03-18T19:59:54.737Z,5.47
2019-03-18T20:02:26.177Z,2.47
2019-03-18T20:04:56.213Z,3.30
2019-03-18T20:07:44.004Z,2.83
2019-03-18T20:10:17.047Z,3.10
2019-03-18T20:12:53.426Z,2.07
2019-03-18T20:15:23.381Z,3.80
2019-03-18T20:17:54.603Z,2.37
2019-03-18T20:20:24.496Z,2.90
2019-03-18T20:22:58.439Z,4.27
2019-03-18T20:25:28.481Z,3.57
2019-03-18T20:28:12.274Z,3.93
2019-03-18T20:30:40.670Z,6.07
2019-03-18T20:33:10.322Z,9.17
2019-03-18T20:35:44.338Z,4.20
2019-03-18T20:38:23.530Z,7.20
2019-03-18T20:40:53.838Z,4.07
2019-03-18T20:43:23.876Z,4.33
2019-03-18T20:45:52.298Z,3.77
2019-03-18T20:48:20.677Z,5.37
2019-03-18T20:50:49.306Z,5.00
2019-03-18T20:53:23.561Z,5.20
2019-03-18T20:55:52.213Z,5.80
2019-03-18T20:58:20.602Z,4.27
2019-03-18T21:00:49.029Z,3.17
2019-03-18T21:03:18.424Z,3.27
2019-03-18T21:05:47.605Z,7.10
2019-03-18T21:08:16.258Z,6.50
2019-03-18T21:10:44.645Z,5.10
2019-03-18T21:13:13.026Z,3.50
2019-03-18T21:15:46.746Z,5.00
2019-03-18T21:18:16.770Z,4.60
2019-03-18T21:20:48.392Z,3.77
2019-03-18T21:23:19.737Z,6.30
2019-03-18T21:25:50.022Z,6.23
2019-03-18T21:28:21.154Z,8.27
2019-03-18T21:30:57.388Z,8.10
2019-03-18T21:33:27.419Z,11.90
2019-03-18T21:35:56.015Z,6.57
2019-03-18T21:38:24.981Z,9.87
2019-03-18T21:40:58.902Z,7.73
2019-03-18T21:43:27.297Z,7.17
2019-03-18T21:46:02.984Z,15.63
2019-03-18T21:48:31.619Z,5.77
2019-03-18T21:51:01.659Z,6.00
2019-03-18T21:53:30.039Z,7.67
2019-03-18T21:56:01.109Z,5.73
2019-03-18T21:58:48.854Z,6.03
2019-03-18T22:01:19.953Z,8.97
2019-03-18T22:04:03.416Z,7.53
2019-03-18T22:06:32.909Z,7.77
2019-03-18T22:09:05.562Z,11.00
2019-03-18T22:11:33.979Z,7.93
2019-03-18T22:14:02.434Z,8.93
2019-03-18T22:16:31.235Z,9.43
2019-03-18T22:19:01.263Z,9.50
2019-03-18T22:21:32.823Z,11.17
2019-03-18T22:24:04.867Z,7.23
2019-03-18T22:26:33.246Z,8.87
2019-03-18T22:29:04.551Z,6.70
2019-03-18T22:31:35.817Z,6.67
2019-03-18T22:34:04.882Z,11.43
2019-03-18T22:36:38.046Z,7.73
2019-03-18T22:39:09.077Z,11.33
2019-03-18T22:41:39.108Z,8.03
2019-03-18T22:44:07.501Z,11.03
2019-03-18T22:46:38.862Z,6.07
2019-03-18T22:49:08.897Z,13.43
2019-03-18T22:51:37.547Z,10.30
2019-03-18T22:54:08.480Z,8.23
2019-03-18T22:56:44.522Z,9.63
2019-03-18T22:59:12.916Z,7.97
2019-03-18T23:01:43.973Z,11.13
2019-03-18T23:04:15.729Z,6.33
2019-03-18T23:06:44.128Z,10.20
2019-03-18T23:09:12.522Z,11.30
2019-03-18T23:11:43.682Z,7.87
2019-03-18T23:14:12.066Z,7.30
2019-03-18T23:16:46.003Z,7.00
2019-03-18T23:19:17.473Z,7.53
2019-03-18T23:21:48.583Z,12.07
2019-03-18T23:24:16.989Z,12.73
2019-03-18T23:26:48.484Z,14.23
2019-03-18T23:29:19.806Z,11.20
2019-03-18T23:31:49.203Z,10.63
2019-03-18T23:34:19.341Z,14.43
2019-03-18T23:36:50.672Z,10.70
2019-03-18T23:39:25.731Z,10.67
2019-03-18T23:41:54.117Z,13.17
2019-03-18T23:44:22.550Z,11.67
2019-03-18T23:46:51.181Z,12.87
2019-03-18T23:49:19.729Z,12.20
2019-03-18T23:51:51.164Z,13.37
2019-03-18T23:54:19.549Z,15.40
2019-03-18T23:56:49.598Z,13.30
2019-03-18T23:59:17.987Z,9.47
